Lorida, Florida
Current Conditions -  °F | °C
As of 4:50 PM on Sunday 23 Nov 2014 (Local Time) from KBOW Reporting Station
Broken Clouds Broken Clouds  
Wind Chill: 81°   Ceiling: 3500
Heat Index: 84°   Visibility: 10mi
Dew Point: 70°   Wind: 9mph
Humidity: 70%   Direction: 200°SSW
Pressure: 29.9"   Gusts: NA
Location:  27.44°N, 81.25°W
Report Text: KBOW 232150Z 20008KT 10SM BKN035 27/21 A2990
Loading
Personal Weather Stations






























Interactive Weather Map New forecast layout! Learn more

10-Day Weather Forecast

Advertisements
Track Severe Weather on mobile